createdAt,value
2019-04-28T00:01:25.927Z,10.35
2019-04-28T00:03:55.543Z,10.20
2019-04-28T00:06:25.469Z,18.82
2019-04-28T00:08:55.071Z,18.70
2019-04-28T00:11:24.636Z,12.37
2019-04-28T00:13:54.263Z,11.08
2019-04-28T00:16:23.970Z,9.98
2019-04-28T00:18:53.554Z,12.47
2019-04-28T00:21:37.883Z,25.75
2019-04-28T00:24:41.749Z,11.08
2019-04-28T00:27:13.680Z,14.23
2019-04-28T00:29:46.023Z,13.43
2019-04-28T00:32:14.912Z,10.68
2019-04-28T00:34:44.518Z,12.10
2019-04-28T00:37:23.742Z,9.93
2019-04-28T00:39:53.357Z,12.10
2019-04-28T00:42:23.207Z,13.50
2019-04-28T00:44:52.766Z,9.98
2019-04-28T00:47:22.375Z,10.48
2019-04-28T00:49:52.198Z,16.52
2019-04-28T00:52:22.317Z,13.78
2019-04-28T00:54:52.679Z,8.98
2019-04-28T00:57:22.878Z,9.28
2019-04-28T00:59:58.239Z,9.05
2019-04-28T01:02:41.477Z,12.23
2019-04-28T01:05:12.467Z,13.20
2019-04-28T01:07:42.106Z,10.58
2019-04-28T01:10:12.471Z,11.38
2019-04-28T01:12:42.135Z,12.45
2019-04-28T01:15:16.504Z,15.18
2019-04-28T01:17:54.791Z,8.70
2019-04-28T01:20:24.759Z,13.28
2019-04-28T01:22:54.341Z,11.10
2019-04-28T01:25:23.958Z,14.47
2019-04-28T01:27:54.958Z,13.10
2019-04-28T01:30:43.888Z,15.90
2019-04-28T01:33:20.649Z,10.35
2019-04-28T01:35:50.477Z,10.38
2019-04-28T01:38:20.441Z,13.83
2019-04-28T01:40:50.093Z,9.63
2019-04-28T01:43:19.971Z,13.10
2019-04-28T01:45:50.245Z,12.07
2019-04-28T01:48:20.088Z,16.50
2019-04-28T01:50:50.087Z,10.85
2019-04-28T01:53:20.042Z,20.70
2019-04-28T01:55:49.920Z,16.57
2019-04-28T01:58:20.437Z,14.58
2019-04-28T02:00:50.615Z,10.98
2019-04-28T02:03:20.692Z,11.50
2019-04-28T02:05:50.299Z,8.08
2019-04-28T02:08:20.347Z,13.13
2019-04-28T02:10:50.244Z,14.23
2019-04-28T02:13:19.993Z,11.73
2019-04-28T02:15:50.220Z,5.65
2019-04-28T02:18:20.045Z,12.58
2019-04-28T02:20:55.346Z,8.20
2019-04-28T02:23:29.901Z,9.18
2019-04-28T02:25:59.764Z,12.15
2019-04-28T02:28:29.687Z,11.43
2019-04-28T02:31:02.093Z,8.75
2019-04-28T02:33:31.234Z,13.35
2019-04-28T02:36:01.570Z,11.03
2019-04-28T02:38:34.226Z,12.13
2019-04-28T02:41:03.104Z,8.20
2019-04-28T02:43:32.672Z,12.03
2019-04-28T02:46:02.471Z,10.58
2019-04-28T02:48:32.339Z,8.80
2019-04-28T02:51:07.467Z,12.80
2019-04-28T02:53:40.985Z,11.93
2019-04-28T02:56:11.259Z,10.00
2019-04-28T02:58:41.777Z,12.05
2019-04-28T03:01:22.062Z,10.43
2019-04-28T03:03:42.877Z,11.55
2019-04-28T03:06:12.463Z,14.85
2019-04-28T03:08:42.226Z,14.03
2019-04-28T03:11:11.775Z,11.63
2019-04-28T03:13:41.642Z,13.38
2019-04-28T03:16:11.235Z,16.25
2019-04-28T03:18:41.428Z,8.88
2019-04-28T03:21:11.607Z,13.05
2019-04-28T03:23:41.256Z,13.15
2019-04-28T03:26:30.954Z,15.65
2019-04-28T03:29:06.811Z,13.90
2019-04-28T03:32:16.359Z,15.05
2019-04-28T03:34:23.309Z,11.78
2019-04-28T03:36:53.121Z,13.00
2019-04-28T03:39:22.695Z,11.43
2019-04-28T03:41:52.301Z,14.95
2019-04-28T03:44:21.943Z,16.00
2019-04-28T03:46:54.087Z,17.57
2019-04-28T03:49:35.667Z,8.58
2019-04-28T03:52:06.542Z,16.30
2019-04-28T03:54:36.109Z,22.00
2019-04-28T03:57:05.837Z,11.08
2019-04-28T03:59:35.699Z,12.18
2019-04-28T04:02:05.301Z,10.68
2019-04-28T04:04:34.899Z,16.80
2019-04-28T04:07:04.425Z,17.42
2019-04-28T04:10:00.880Z,12.00
2019-04-28T04:12:50.867Z,15.58
2019-04-28T04:15:54.878Z,18.65
2019-04-28T04:18:34.121Z,11.97
2019-04-28T04:21:03.707Z,13.62
2019-04-28T04:23:33.274Z,15.45
2019-04-28T04:26:02.843Z,9.18
2019-04-28T04:28:32.557Z,15.03
2019-04-28T04:31:03.226Z,12.58
2019-04-28T04:33:33.054Z,11.38
2019-04-28T04:36:02.667Z,18.05
2019-04-28T04:38:32.316Z,14.25
2019-04-28T04:41:02.015Z,14.13
2019-04-28T04:43:32.098Z,11.50
2019-04-28T04:46:21.937Z,15.43
2019-04-28T04:48:51.121Z,14.30
2019-04-28T04:51:21.627Z,11.28
2019-04-28T04:53:51.703Z,13.35
2019-04-28T04:56:21.724Z,15.78
2019-04-28T04:58:51.560Z,11.60
2019-04-28T05:01:42.911Z,8.80
2019-04-28T05:04:40.568Z,10.80
2019-04-28T05:07:10.875Z,10.43
2019-04-28T05:09:40.763Z,13.13
2019-04-28T05:12:10.341Z,10.75
2019-04-28T05:14:39.929Z,15.23
2019-04-28T05:17:10.432Z,14.50
2019-04-28T05:19:40.337Z,12.70
2019-04-28T05:22:10.862Z,10.70
2019-04-28T05:24:51.118Z,14.95
2019-04-28T05:27:22.198Z,15.28
2019-04-28T05:29:51.523Z,15.68
2019-04-28T05:32:21.139Z,14.80
2019-04-28T05:34:52.882Z,7.62
2019-04-28T05:37:21.996Z,11.57
2019-04-28T05:39:52.579Z,12.53
2019-04-28T05:42:22.290Z,11.40
2019-04-28T05:44:51.838Z,15.72
2019-04-28T05:47:21.991Z,12.60
2019-04-28T05:50:14.687Z,17.70
2019-04-28T05:53:03.482Z,15.30
2019-04-28T05:55:55.054Z,14.90
2019-04-28T05:59:00.572Z,14.05
2019-04-28T06:01:54.941Z,18.75
2019-04-28T06:04:27.410Z,10.75
2019-04-28T06:07:02.317Z,15.43
2019-04-28T06:09:39.876Z,15.13
2019-04-28T06:12:11.932Z,20.75
2019-04-28T06:14:41.521Z,17.27
2019-04-28T06:17:11.102Z,13.08
2019-04-28T06:19:40.757Z,16.00
2019-04-28T06:22:10.342Z,17.20
2019-04-28T06:24:40.525Z,14.73
2019-04-28T06:27:10.050Z,20.62
2019-04-28T06:29:39.707Z,15.78
2019-04-28T06:32:09.543Z,14.18
2019-04-28T06:34:39.186Z,11.93
2019-04-28T06:37:09.007Z,14.28
2019-04-28T06:39:39.119Z,15.90
2019-04-28T06:42:08.677Z,14.65
2019-04-28T06:44:38.244Z,12.35
2019-04-28T06:47:07.838Z,20.23
2019-04-28T06:49:37.451Z,18.73
2019-04-28T06:52:07.063Z,11.83
2019-04-28T06:54:36.629Z,18.57
2019-04-28T06:57:06.490Z,18.00
2019-04-28T06:59:36.370Z,14.98
2019-04-28T07:02:06.203Z,15.60
2019-04-28T07:04:35.796Z,13.40
2019-04-28T07:07:05.705Z,21.27
2019-04-28T07:09:35.596Z,14.50
2019-04-28T07:12:05.242Z,14.95
2019-04-28T07:14:34.935Z,15.80
2019-04-28T07:17:04.463Z,16.93
2019-04-28T07:19:34.075Z,19.98
2019-04-28T07:22:09.020Z,20.45
2019-04-28T07:24:38.867Z,14.33
2019-04-28T07:27:08.779Z,17.20
2019-04-28T07:29:38.405Z,16.10
2019-04-28T07:32:08.021Z,16.05
2019-04-28T07:34:37.657Z,12.25
2019-04-28T07:37:07.198Z,13.10
2019-04-28T07:39:36.835Z,14.47
2019-04-28T07:42:06.384Z,17.10
2019-04-28T07:44:35.994Z,16.37
2019-04-28T07:47:05.548Z,11.75
2019-04-28T07:49:35.131Z,14.70
2019-04-28T07:52:12.336Z,24.65
2019-04-28T07:54:41.968Z,12.90
2019-04-28T07:57:11.513Z,11.97
2019-04-28T07:59:41.304Z,13.32
2019-04-28T08:02:10.895Z,24.90
2019-04-28T08:04:40.648Z,12.53
2019-04-28T08:07:10.206Z,16.07
2019-04-28T08:09:39.873Z,16.90
2019-04-28T08:12:09.456Z,19.73
2019-04-28T08:14:39.466Z,18.35
2019-04-28T08:17:09.048Z,20.43
2019-04-28T08:19:38.650Z,16.37
2019-04-28T08:22:08.243Z,19.82
2019-04-28T08:24:37.855Z,22.02
2019-04-28T08:27:07.706Z,12.70
2019-04-28T08:29:37.311Z,15.90
2019-04-28T08:32:34.879Z,27.25
2019-04-28T08:35:04.718Z,16.20
2019-04-28T08:37:34.296Z,15.03
2019-04-28T08:40:03.934Z,21.52
2019-04-28T08:42:33.746Z,14.58
2019-04-28T08:45:03.367Z,23.12
2019-04-28T08:47:32.929Z,16.60
2019-04-28T08:50:02.736Z,15.35
2019-04-28T08:52:32.374Z,17.65
2019-04-28T08:55:02.203Z,20.92
2019-04-28T08:57:31.801Z,15.30
2019-04-28T09:00:01.414Z,21.15
2019-04-28T09:02:30.996Z,18.17
2019-04-28T09:05:00.877Z,20.37
2019-04-28T09:07:30.462Z,14.40
2019-04-28T09:10:00.080Z,16.48
2019-04-28T09:12:30.032Z,16.97
2019-04-28T09:14:59.860Z,15.83
2019-04-28T09:17:29.470Z,17.27
2019-04-28T09:19:59.091Z,14.90
2019-04-28T09:22:28.667Z,14.45
2019-04-28T09:24:58.403Z,18.52
2019-04-28T09:27:28.001Z,17.62
2019-04-28T09:29:58.154Z,17.50
2019-04-28T09:32:27.785Z,17.85
2019-04-28T09:34:57.400Z,14.10
2019-04-28T09:37:27.027Z,16.52
2019-04-28T09:40:08.362Z,10.78
2019-04-28T09:42:56.877Z,13.30
2019-04-28T09:45:32.470Z,9.88
2019-04-28T09:48:02.069Z,12.13
2019-04-28T09:50:31.679Z,11.88
2019-04-28T09:53:01.579Z,11.38
2019-04-28T09:55:31.176Z,16.42
2019-04-28T09:58:01.050Z,12.07
2019-04-28T10:00:30.597Z,10.60
2019-04-28T10:03:00.540Z,10.53
2019-04-28T10:05:33.183Z,6.47
2019-04-28T10:08:02.778Z,8.18
2019-04-28T10:10:32.622Z,5.95
2019-04-28T10:13:02.472Z,7.78
2019-04-28T10:15:32.126Z,4.62
2019-04-28T10:18:01.753Z,5.85
2019-04-28T10:20:34.361Z,4.72
2019-04-28T10:23:06.260Z,4.08
2019-04-28T10:25:35.849Z,5.20
2019-04-28T10:28:06.451Z,6.37
2019-04-28T10:30:36.555Z,4.70
2019-04-28T10:33:06.295Z,3.08
2019-04-28T10:35:36.080Z,4.03
2019-04-28T10:38:05.999Z,4.50
2019-04-28T10:41:02.197Z,4.92
2019-04-28T10:43:31.777Z,3.12
2019-04-28T10:46:01.730Z,4.05
2019-04-28T10:48:31.744Z,4.08
2019-04-28T10:51:01.588Z,3.58
2019-04-28T10:53:31.239Z,4.22
2019-04-28T10:56:01.106Z,4.25
2019-04-28T10:58:30.738Z,6.70
2019-04-28T11:01:01.269Z,3.30
2019-04-28T11:03:31.523Z,2.92
2019-04-28T11:06:01.159Z,2.52
2019-04-28T11:08:56.056Z,2.77
2019-04-28T11:11:27.569Z,3.87
2019-04-28T11:14:00.811Z,4.65
2019-04-28T11:16:35.052Z,3.22
2019-04-28T11:19:07.204Z,3.80
2019-04-28T11:21:37.091Z,3.52
2019-04-28T11:24:06.911Z,6.37
2019-04-28T11:26:36.496Z,4.97
2019-04-28T11:29:06.390Z,4.08
2019-04-28T11:31:36.076Z,4.67
2019-04-28T11:34:17.413Z,6.73
2019-04-28T11:36:47.037Z,7.37
2019-04-28T11:39:22.610Z,5.55
2019-04-28T11:41:52.303Z,5.80
2019-04-28T11:44:21.983Z,4.47
2019-04-28T11:46:51.550Z,4.65
2019-04-28T11:49:21.135Z,7.12
2019-04-28T11:51:50.792Z,6.28
2019-04-28T11:54:20.323Z,5.03
2019-04-28T11:56:50.491Z,6.30
2019-04-28T11:59:21.308Z,5.80
2019-04-28T12:01:51.327Z,5.80
2019-04-28T12:04:21.291Z,7.90
2019-04-28T12:06:51.207Z,4.40
2019-04-28T12:10:04.797Z,5.92
2019-04-28T12:12:35.832Z,5.92
2019-04-28T12:15:17.830Z,9.58
2019-04-28T12:18:06.997Z,9.88
2019-04-28T12:20:36.646Z,7.95
2019-04-28T12:23:06.512Z,10.98
2019-04-28T12:25:36.071Z,9.10
2019-04-28T12:28:05.861Z,8.63
2019-04-28T12:30:35.449Z,11.12
2019-04-28T12:33:05.127Z,7.87
2019-04-28T12:35:46.810Z,9.63
2019-04-28T12:38:06.047Z,11.15
2019-04-28T12:40:35.614Z,8.18
2019-04-28T12:43:05.296Z,8.23
2019-04-28T12:45:35.616Z,7.85
2019-04-28T12:48:07.137Z,8.78
2019-04-28T12:50:42.757Z,5.83
2019-04-28T12:53:12.323Z,7.25
2019-04-28T12:55:41.959Z,5.85
2019-04-28T12:58:11.593Z,8.08
2019-04-28T13:01:00.167Z,7.70
2019-04-28T13:03:48.871Z,6.30
2019-04-28T13:06:19.220Z,7.53
2019-04-28T13:08:48.809Z,9.05
2019-04-28T13:11:18.696Z,9.38
2019-04-28T13:13:48.544Z,8.48
2019-04-28T13:16:18.229Z,7.85
2019-04-28T13:18:47.836Z,7.05
2019-04-28T13:21:17.530Z,6.53
2019-04-28T13:23:47.125Z,9.10
2019-04-28T13:26:17.292Z,8.00
2019-04-28T13:28:46.892Z,9.80
2019-04-28T13:31:16.518Z,9.13
2019-04-28T13:33:55.716Z,9.03
2019-04-28T13:36:17.496Z,8.53
2019-04-28T13:38:47.153Z,7.70
2019-04-28T13:41:16.759Z,7.00
2019-04-28T13:43:46.403Z,6.20
2019-04-28T13:46:16.008Z,9.10
2019-04-28T13:48:45.670Z,7.20
2019-04-28T13:51:15.265Z,7.63
2019-04-28T13:53:44.929Z,8.80
2019-04-28T13:56:14.527Z,7.93
2019-04-28T13:58:51.671Z,9.53
2019-04-28T14:01:38.900Z,8.70
2019-04-28T14:04:21.663Z,7.13
2019-04-28T14:06:54.314Z,11.10
2019-04-28T14:09:24.276Z,9.27
2019-04-28T14:11:54.035Z,11.13
2019-04-28T14:14:26.110Z,7.93
2019-04-28T14:16:57.889Z,8.47
2019-04-28T14:19:28.457Z,8.57
2019-04-28T14:21:58.087Z,10.20
2019-04-28T14:24:27.894Z,11.93
2019-04-28T14:26:57.605Z,7.33
2019-04-28T14:29:27.741Z,9.23
2019-04-28T14:31:57.435Z,9.73
2019-04-28T14:34:27.331Z,6.10
2019-04-28T14:36:57.134Z,9.50
2019-04-28T14:39:28.472Z,8.80
2019-04-28T14:41:58.353Z,10.57
2019-04-28T14:44:27.944Z,7.70
2019-04-28T14:46:57.693Z,7.17
2019-04-28T14:49:27.623Z,5.33
2019-04-28T14:51:57.244Z,7.30
2019-04-28T14:54:26.877Z,8.40
2019-04-28T14:56:56.737Z,9.53
2019-04-28T14:59:26.925Z,8.70
2019-04-28T15:02:04.552Z,8.77
2019-04-28T15:04:59.648Z,11.00
2019-04-28T15:07:46.805Z,8.40
2019-04-28T15:10:25.770Z,7.47
2019-04-28T15:12:56.300Z,9.30
2019-04-28T15:15:26.044Z,9.43
2019-04-28T15:17:56.060Z,11.83
2019-04-28T15:20:25.773Z,8.87
2019-04-28T15:22:55.353Z,6.40
2019-04-28T15:25:24.951Z,5.57
2019-04-28T15:27:54.619Z,6.30
2019-04-28T15:30:24.535Z,7.93
2019-04-28T15:32:54.169Z,6.03
2019-04-28T15:35:23.722Z,9.13
2019-04-28T15:37:53.353Z,7.13
2019-04-28T15:40:23.202Z,8.40
2019-04-28T15:42:52.836Z,6.80
2019-04-28T15:45:22.464Z,6.77
2019-04-28T15:47:52.297Z,6.67
2019-04-28T15:50:25.023Z,5.43
2019-04-28T15:52:53.143Z,6.00
2019-04-28T15:55:28.666Z,7.53
2019-04-28T15:57:59.965Z,6.83
2019-04-28T16:00:29.815Z,7.17
2019-04-28T16:02:59.657Z,10.20
2019-04-28T16:05:29.326Z,8.50
2019-04-28T16:07:58.967Z,10.33
2019-04-28T16:10:28.596Z,8.83
2019-04-28T16:13:00.118Z,4.97
2019-04-28T16:15:29.892Z,8.50
2019-04-28T16:17:59.816Z,6.80
2019-04-28T16:20:29.914Z,8.03
2019-04-28T16:22:59.731Z,5.67
2019-04-28T16:25:29.988Z,6.30
2019-04-28T16:27:59.922Z,6.90
2019-04-28T16:30:29.658Z,5.53
2019-04-28T16:33:00.043Z,8.53
2019-04-28T16:35:30.049Z,5.33
2019-04-28T16:37:59.687Z,7.43
2019-04-28T16:40:51.654Z,10.03
2019-04-28T16:43:56.519Z,5.50
2019-04-28T16:46:26.340Z,4.43
2019-04-28T16:48:56.204Z,5.27
2019-04-28T16:51:26.169Z,6.53
2019-04-28T16:53:55.755Z,4.70
2019-04-28T16:56:40.399Z,6.10
2019-04-28T16:59:35.477Z,5.23
2019-04-28T17:02:11.265Z,6.40
2019-04-28T17:04:41.740Z,4.03
2019-04-28T17:07:12.159Z,7.30
2019-04-28T17:09:41.856Z,4.90
2019-04-28T17:12:13.741Z,6.80
2019-04-28T17:14:44.904Z,6.83
2019-04-28T17:17:15.407Z,4.07
2019-04-28T17:19:45.280Z,6.17
2019-04-28T17:22:15.336Z,6.23
2019-04-28T17:24:45.027Z,4.47
2019-04-28T17:27:15.298Z,6.37
2019-04-28T17:29:45.358Z,7.00
2019-04-28T17:32:15.183Z,6.40
2019-04-28T17:34:45.674Z,7.80
2019-04-28T17:37:15.951Z,5.30
2019-04-28T17:39:46.021Z,4.80
2019-04-28T17:42:15.767Z,4.93
2019-04-28T17:44:45.632Z,6.90
2019-04-28T17:47:16.900Z,4.30
2019-04-28T17:49:46.512Z,5.70
2019-04-28T17:52:16.343Z,6.87
2019-04-28T17:54:46.429Z,4.93
2019-04-28T17:57:16.619Z,8.07
2019-04-28T17:59:48.213Z,6.17
2019-04-28T18:02:36.688Z,5.67
2019-04-28T18:05:28.393Z,4.77
2019-04-28T18:08:02.011Z,5.10
2019-04-28T18:10:31.845Z,5.17
2019-04-28T18:13:01.467Z,5.60
2019-04-28T18:15:50.006Z,7.23
2019-04-28T18:18:25.569Z,4.63
2019-04-28T18:20:55.196Z,5.20
2019-04-28T18:23:24.786Z,5.40
2019-04-28T18:25:54.721Z,6.80
2019-04-28T18:28:24.517Z,8.48
2019-04-28T18:31:02.691Z,5.25
2019-04-28T18:33:54.275Z,6.15
2019-04-28T18:36:32.047Z,8.88
2019-04-28T18:39:17.020Z,4.58
2019-04-28T18:41:56.911Z,5.53
2019-04-28T18:44:26.485Z,6.58
2019-04-28T18:46:56.135Z,7.70
2019-04-28T18:49:25.705Z,4.90
2019-04-28T18:51:55.379Z,11.78
2019-04-28T18:54:25.006Z,5.28
2019-04-28T18:56:54.637Z,9.78
2019-04-28T18:59:24.512Z,5.55
2019-04-28T19:02:11.865Z,7.65
2019-04-28T19:04:41.681Z,6.85
2019-04-28T19:07:13.613Z,7.08
2019-04-28T19:09:58.775Z,6.97
2019-04-28T19:12:33.072Z,7.53
2019-04-28T19:15:20.307Z,6.53
2019-04-28T19:17:56.550Z,6.65
2019-04-28T19:20:26.232Z,5.72
2019-04-28T19:22:56.095Z,9.30
2019-04-28T19:25:25.765Z,8.75
2019-04-28T19:27:55.648Z,8.20
2019-04-28T19:30:26.640Z,8.10
2019-04-28T19:32:56.413Z,8.20
2019-04-28T19:35:26.033Z,14.45
2019-04-28T19:37:55.673Z,12.33
2019-04-28T19:40:25.626Z,8.65
2019-04-28T19:42:55.763Z,10.35
2019-04-28T19:45:25.379Z,7.40
2019-04-28T19:47:54.965Z,8.90
2019-04-28T19:50:24.619Z,8.03
2019-04-28T19:52:56.574Z,8.75
2019-04-28T19:55:30.572Z,9.30
2019-04-28T19:58:09.564Z,8.85
2019-04-28T20:00:44.001Z,8.98
2019-04-28T20:03:13.676Z,9.23
2019-04-28T20:05:43.561Z,10.65
2019-04-28T20:08:13.214Z,10.80
2019-04-28T20:10:43.110Z,10.48
2019-04-28T20:13:13.040Z,10.40
2019-04-28T20:15:42.671Z,12.93
2019-04-28T20:18:12.575Z,11.78
2019-04-28T20:20:42.243Z,14.00
2019-04-28T20:23:13.474Z,11.73
2019-04-28T20:25:43.403Z,11.40
2019-04-28T20:28:13.077Z,12.10
2019-04-28T20:30:42.825Z,12.60
2019-04-28T20:33:12.458Z,13.93
2019-04-28T20:35:47.412Z,13.72
2019-04-28T20:38:29.314Z,12.68
2019-04-28T20:41:04.634Z,10.82
2019-04-28T20:43:34.221Z,13.78
2019-04-28T20:46:03.880Z,10.95
2019-04-28T20:48:35.781Z,13.95
2019-04-28T20:51:05.949Z,10.08
2019-04-28T20:53:35.528Z,10.75
2019-04-28T20:56:05.061Z,13.10
2019-04-28T20:58:34.679Z,10.25
2019-04-28T21:01:04.835Z,8.13
2019-04-28T21:03:34.445Z,9.63
2019-04-28T21:06:04.052Z,9.40
2019-04-28T21:08:33.785Z,11.85
2019-04-28T21:11:03.411Z,7.92
2019-04-28T21:13:33.063Z,10.53
2019-04-28T21:16:02.720Z,6.80
2019-04-28T21:18:32.359Z,13.00
2019-04-28T21:21:02.208Z,10.20
2019-04-28T21:23:31.954Z,7.37
2019-04-28T21:26:01.590Z,12.45
2019-04-28T21:28:31.516Z,13.72
2019-04-28T21:31:01.198Z,9.48
2019-04-28T21:33:30.954Z,9.78
2019-04-28T21:36:00.685Z,14.03
2019-04-28T21:38:30.418Z,8.70
2019-04-28T21:41:02.293Z,11.57
2019-04-28T21:43:37.896Z,13.20
2019-04-28T21:46:38.980Z,11.05
2019-04-28T21:49:21.461Z,9.28
2019-04-28T21:51:51.278Z,14.93
2019-04-28T21:54:20.915Z,11.05
2019-04-28T21:56:50.497Z,9.95
2019-04-28T21:59:20.182Z,11.18
2019-04-28T22:01:50.328Z,10.90
2019-04-28T22:04:19.921Z,9.88
2019-04-28T22:06:49.529Z,9.60
2019-04-28T22:09:20.683Z,10.70
2019-04-28T22:11:50.571Z,7.95
2019-04-28T22:14:20.489Z,7.12
2019-04-28T22:16:50.104Z,10.03
2019-04-28T22:19:19.722Z,7.95
2019-04-28T22:21:49.291Z,9.18
2019-04-28T22:24:40.836Z,9.95
2019-04-28T22:27:12.971Z,8.33
2019-04-28T22:29:42.891Z,9.30
2019-04-28T22:32:12.535Z,10.82
2019-04-28T22:34:42.703Z,11.88
2019-04-28T22:37:12.249Z,8.70
2019-04-28T22:39:42.212Z,8.38
2019-04-28T22:42:12.006Z,11.00
2019-04-28T22:44:41.816Z,8.45
2019-04-28T22:47:13.700Z,8.40
2019-04-28T22:49:43.289Z,9.13
2019-04-28T22:52:12.908Z,10.90
2019-04-28T22:55:01.391Z,8.60
2019-04-28T22:57:49.939Z,10.95
2019-04-28T23:00:49.964Z,8.00
2019-04-28T23:03:34.021Z,9.78
2019-04-28T23:06:03.617Z,8.60
2019-04-28T23:08:33.214Z,8.55
2019-04-28T23:11:02.860Z,6.90
2019-04-28T23:13:32.463Z,8.28
2019-04-28T23:16:02.008Z,8.68
2019-04-28T23:18:31.636Z,7.80
2019-04-28T23:21:04.654Z,8.18
2019-04-28T23:23:34.244Z,8.23
2019-04-28T23:26:03.821Z,9.45
2019-04-28T23:28:33.702Z,8.53
2019-04-28T23:31:03.318Z,9.23
2019-04-28T23:33:32.947Z,8.83
2019-04-28T23:36:02.888Z,8.88
2019-04-28T23:38:32.559Z,8.35
2019-04-28T23:41:13.580Z,10.13
2019-04-28T23:43:43.190Z,9.35
2019-04-28T23:46:12.769Z,7.65
2019-04-28T23:48:42.641Z,10.18
2019-04-28T23:51:31.143Z,8.18
2019-04-28T23:54:03.237Z,8.45
2019-04-28T23:56:32.789Z,6.35
2019-04-28T23:59:02.526Z,7.12
